Terminal Aerodrome Forecast
Issued by NWS Cleveland, OH

Home | Current Version | Previous Version | Text Only | Print | Product List | Glossary Off
Versions: 1 2 3 4 5 6 7 8 9 10 11 12 13 14 15 16 17 18 19 20 21 22 23 24 25 26

626
FTUS41 KCLE 261707 AAA
TAFMFD
TAF AMD
KMFD 261707Z 2617/2712 16008KT 6SM -RA BKN035 OVC070
      TEMPO 2617/2619 4SM SHRA BKN025
     FM262000 18012KT 6SM BR OVC035
      TEMPO 2620/2624 3SM -TSRA OVC015CB
     FM270200 16004KT 3SM BR SCT004 BKN045
     FM270600 23005KT 2SM BR OVC006=

USA.gov is the U.S. government's official web portal to all federal, state and local government web resources and services.